Time;durP1;ratioP1;P1;durP2;ratioP2;P2;SDS_P1;SDS_P2;PMS_P1;PMS_P2;Temp;Humidity;BMP_temperature;BMP_pressure;BME280_temperature;BME280_humidity;BME280_pressure;Samples;Min_cycle;Max_cycle;Signal;HPM_P1;HPM_P2
2022/06/26 00:01:46;;;;;;;6.80;3.80;;;;;;;17.90;94.72;100110.91;5531644;32;34400;-69
2022/06/26 00:04:49;;;;;;;7.28;3.55;;;;;;;17.84;95.14;100111.78;5531418;32;34526;-69
2022/06/26 00:07:52;;;;;;;4.55;3.12;;;;;;;17.78;95.62;100113.47;5531677;32;34063;-68
2022/06/26 00:10:55;;;;;;;7.60;3.00;;;;;;;17.80;94.79;100117.59;5531674;32;34606;-68
2022/06/26 00:13:58;;;;;;;3.90;2.60;;;;;;;17.86;94.13;100120.44;5530769;32;33891;-69
2022/06/26 00:17:02;;;;;;;6.12;2.90;;;;;;;17.76;94.54;100124.47;5530784;32;34710;-69
2022/06/26 00:20:06;;;;;;;4.43;3.00;;;;;;;17.76;95.66;100131.69;5531673;32;34788;-69
2022/06/26 00:23:10;;;;;;;5.40;3.05;;;;;;;17.73;96.43;100135.63;5531718;32;34132;-69
2022/06/26 00:26:12;;;;;;;4.65;3.10;;;;;;;17.65;96.13;100135.91;5531427;32;34058;-69
2022/06/26 00:29:15;;;;;;;4.32;2.95;;;;;;;17.53;96.85;100134.09;5531367;32;34127;-69
2022/06/26 00:32:17;;;;;;;5.45;3.05;;;;;;;17.41;97.21;100127.81;5531432;32;34060;-68
2022/06/26 00:35:21;;;;;;;4.53;2.80;;;;;;;17.38;97.14;100137.09;5531445;32;33993;-69
2022/06/26 00:38:23;;;;;;;6.10;3.30;;;;;;;17.31;98.38;100130.97;5531355;32;34643;-69
2022/06/26 00:41:26;;;;;;;4.60;3.12;;;;;;;17.38;99.00;100139.78;5531225;32;33961;-69
2022/06/26 00:44:31;;;;;;;4.18;2.83;;;;;;;17.38;98.75;100142.47;5530542;32;34029;-69
2022/06/26 00:47:34;;;;;;;5.05;2.90;;;;;;;17.34;98.57;100131.34;5530659;32;34058;-69
2022/06/26 00:50:39;;;;;;;6.00;2.85;;;;;;;17.32;98.65;100132.63;5531266;32;33917;-68
2022/06/26 00:53:42;;;;;;;5.37;3.40;;;;;;;17.33;99.67;100128.91;5530626;32;32517;-69
2022/06/26 00:56:45;;;;;;;5.72;2.87;;;;;;;17.33;99.94;100129.72;5531172;32;34105;-68
2022/06/26 00:59:49;;;;;;;7.57;3.15;;;;;;;17.30;99.95;100134.69;5531079;32;34294;-69
2022/06/26 01:02:51;;;;;;;11.12;3.65;;;;;;;17.34;100.00;100135.91;5530715;32;34009;-69
2022/06/26 01:05:56;;;;;;;7.05;3.30;;;;;;;17.34;100.00;100133.22;5530791;32;33986;-68
2022/06/26 01:08:59;;;;;;;3.78;2.85;;;;;;;17.30;100.00;100130.16;5517575;32;34561;-69
2022/06/26 01:12:05;;;;;;;3.70;2.90;;;;;;;17.23;100.00;100134.72;5531057;32;34317;-68
2022/06/26 01:15:16;;;;;;;4.45;2.92;;;;;;;17.21;100.00;100142.19;5530910;32;34099;-69
2022/06/26 01:18:22;;;;;;;3.97;2.60;;;;;;;17.27;100.00;100140.50;5530953;32;34047;-69
2022/06/26 01:21:25;;;;;;;4.55;2.65;;;;;;;17.22;100.00;100141.16;5530133;32;34622;-69
2022/06/26 01:24:31;;;;;;;6.07;2.87;;;;;;;17.26;100.00;100136.16;5530787;32;34326;-69
2022/06/26 01:27:42;;;;;;;4.57;2.60;;;;;;;17.21;100.00;100138.69;5530776;32;35353;-69
2022/06/26 01:30:45;;;;;;;3.78;2.40;;;;;;;17.22;100.00;100149.19;5530807;32;34061;-69
2022/06/26 01:33:50;;;;;;;5.20;2.25;;;;;;;17.23;100.00;100142.78;5530757;32;34046;-68
2022/06/26 01:36:55;;;;;;;6.18;3.15;;;;;;;17.30;100.00;100145.41;5530757;32;34529;-68
2022/06/26 01:39:59;;;;;;;3.97;2.00;;;;;;;17.41;100.00;100134.00;5530912;32;34054;-68
2022/06/26 01:43:04;;;;;;;2.70;1.55;;;;;;;17.55;100.00;100127.50;5529960;32;33937;-68
2022/06/26 01:46:07;;;;;;;2.05;1.75;;;;;;;17.67;100.00;100141.84;5530785;32;34121;-69
2022/06/26 01:49:11;;;;;;;2.75;1.50;;;;;;;17.87;100.00;100136.31;5530548;32;33635;-69
2022/06/26 01:52:15;;;;;;;3.20;1.70;;;;;;;17.84;100.00;100143.97;5534078;32;34668;-69
2022/06/26 01:55:20;;;;;;;3.55;1.87;;;;;;;17.81;100.00;100164.03;5536886;32;33937;-68
2022/06/26 01:58:24;;;;;;;2.67;1.80;;;;;;;17.85;100.00;100167.09;5536806;32;34049;-68
2022/06/26 02:01:33;;;;;;;3.30;1.90;;;;;;;17.87;100.00;100160.47;5532498;32;134917;-68
2022/06/26 02:04:42;;;;;;;7.37;3.35;;;;;;;17.80;100.00;100171.28;5536497;32;34100;-68
2022/06/26 02:07:46;;;;;;;4.87;3.05;;;;;;;17.77;100.00;100177.06;5536553;32;34113;-68
2022/06/26 02:14:11;;;;;;;7.32;3.95;;;;;;;17.89;100.00;100187.91;5536357;32;33996;-68
2022/06/26 02:17:15;;;;;;;8.55;4.28;;;;;;;18.02;99.15;100178.91;5536447;32;33928;-69
2022/06/26 02:20:18;;;;;;;9.60;3.65;;;;;;;17.96;99.48;100191.34;5536303;32;34082;-68
2022/06/26 02:23:21;;;;;;;3.95;3.00;;;;;;;17.83;99.32;100186.09;5536328;32;33967;-68
2022/06/26 02:26:26;;;;;;;7.10;2.70;;;;;;;17.53;100.00;100183.19;5535578;32;34125;-68
2022/06/26 02:29:30;;;;;;;4.22;2.78;;;;;;;17.34;100.00;100194.88;5535452;32;34025;-68
2022/06/26 02:32:42;;;;;;;6.62;3.08;;;;;;;17.37;100.00;100197.16;5536090;32;34080;-68
2022/06/26 02:35:48;;;;;;;4.00;2.70;;;;;;;17.32;100.00;100196.97;5522844;32;32456;-68
2022/06/26 02:38:51;;;;;;;3.65;2.60;;;;;;;17.23;100.00;100196.37;5536030;32;34068;-68
2022/06/26 02:41:53;;;;;;;5.05;2.90;;;;;;;17.11;100.00;100203.50;5536041;32;34007;-68
2022/06/26 02:44:56;;;;;;;4.78;2.67;;;;;;;17.04;100.00;100216.09;5536170;32;34351;-69
2022/06/26 02:48:01;;;;;;;7.93;3.40;;;;;;;16.94;100.00;100219.22;5535142;32;34335;-68
2022/06/26 02:51:04;;;;;;;4.72;2.70;;;;;;;16.84;100.00;100213.53;5534943;32;33923;-69
2022/06/26 02:54:08;;;;;;;4.87;2.80;;;;;;;16.77;100.00;100220.75;5536052;32;33887;-69
2022/06/26 02:57:11;;;;;;;5.70;2.83;;;;;;;16.78;100.00;100230.44;5535231;32;33886;-68
2022/06/26 03:00:15;;;;;;;4.05;2.70;;;;;;;16.77;100.00;100226.09;5534931;32;33930;-69
2022/06/26 03:03:19;;;;;;;4.37;2.75;;;;;;;16.76;100.00;100239.69;5533276;32;34049;-69
2022/06/26 03:06:22;;;;;;;3.75;2.72;;;;;;;16.73;100.00;100237.47;5531423;32;34057;-68
2022/06/26 03:09:25;;;;;;;7.43;3.20;;;;;;;16.72;100.00;100236.63;5532020;32;33922;-69
2022/06/26 03:12:28;;;;;;;3.83;2.75;;;;;;;16.78;100.00;100243.00;5531932;32;33980;-69
2022/06/26 03:15:31;;;;;;;9.32;3.40;;;;;;;16.85;100.00;100241.09;5531975;32;34701;-68
2022/06/26 03:18:34;;;;;;;3.83;2.67;;;;;;;16.97;100.00;100254.69;5532110;32;34006;-69
2022/06/26 03:21:37;;;;;;;4.35;2.70;;;;;;;17.11;100.00;100254.41;5531245;32;34671;-69
2022/06/26 03:24:40;;;;;;;2.87;2.08;;;;;;;17.45;100.00;100250.53;5531838;32;34151;-68
2022/06/26 03:27:45;;;;;;;4.15;2.08;;;;;;;17.50;100.00;100250.69;5531977;32;34686;-68
2022/06/26 03:30:51;;;;;;;2.37;1.90;;;;;;;17.64;100.00;100254.16;5531368;32;34061;-68
2022/06/26 03:33:54;;;;;;;2.85;2.00;;;;;;;17.69;100.00;100257.84;5532133;32;34520;-68
2022/06/26 03:36:58;;;;;;;2.95;1.60;;;;;;;17.77;100.00;100249.50;5531959;32;34258;-68
2022/06/26 03:40:01;;;;;;;2.80;1.70;;;;;;;17.71;100.00;100241.53;5531569;32;34017;-68
2022/06/26 03:43:09;;;;;;;2.75;1.67;;;;;;;17.80;100.00;100254.47;5531945;32;33879;-68
2022/06/26 03:46:21;;;;;;;2.58;1.80;;;;;;;17.78;100.00;100259.22;5531782;32;34370;-68
2022/06/26 03:49:25;;;;;;;2.20;1.65;;;;;;;17.88;100.00;100263.25;5532146;32;34135;-68
2022/06/26 03:52:27;;;;;;;2.72;1.83;;;;;;;17.99;100.00;100266.06;5531239;32;34663;-68
2022/06/26 03:55:33;;;;;;;3.53;1.80;;;;;;;18.13;100.00;100258.72;5531726;32;34832;-68
2022/06/26 03:58:36;;;;;;;2.78;1.77;;;;;;;18.17;100.00;100265.31;5531055;32;34038;-69
2022/06/26 04:01:39;;;;;;;1.70;1.60;;;;;;;18.23;100.00;100261.75;5531655;32;33915;-69
2022/06/26 04:04:43;;;;;;;4.03;2.12;;;;;;;18.43;99.84;100265.06;5531297;32;34888;-68
2022/06/26 04:07:46;;;;;;;3.03;1.85;;;;;;;18.34;99.06;100249.47;5531887;32;34542;-68
2022/06/26 04:10:50;;;;;;;3.62;2.00;;;;;;;18.35;100.00;100259.97;5531603;32;34091;-68
2022/06/26 04:13:54;;;;;;;3.03;2.22;;;;;;;18.53;98.93;100265.41;5517842;32;33878;-68
2022/06/26 04:16:57;;;;;;;2.70;2.12;;;;;;;18.50;98.88;100263.13;5531863;32;35237;-68
2022/06/26 04:20:01;;;;;;;2.25;2.05;;;;;;;18.47;99.82;100260.91;5531635;32;34462;-68
2022/06/26 04:23:11;;;;;;;3.80;2.05;;;;;;;18.55;99.18;100257.13;5531781;32;34070;-68
2022/06/26 04:26:15;;;;;;;2.00;1.83;;;;;;;18.61;99.58;100266.97;5530565;32;33875;-68
2022/06/26 04:29:24;;;;;;;3.53;2.37;;;;;;;18.79;98.89;100271.53;5531548;32;33867;-68
2022/06/26 04:32:27;;;;;;;4.12;2.22;;;;;;;18.84;98.65;100269.81;5531397;32;34731;-68
2022/06/26 04:35:38;;;;;;;2.67;2.12;;;;;;;18.87;98.45;100271.25;5530575;32;34222;-68
2022/06/26 04:38:43;;;;;;;3.22;2.58;;;;;;;19.03;97.71;100279.53;5531559;32;34672;-68
2022/06/26 04:41:47;;;;;;;5.82;2.47;;;;;;;19.04;95.88;100278.47;5531414;32;34010;-68
2022/06/26 04:44:49;;;;;;;3.90;2.80;;;;;;;18.88;96.54;100280.97;5531010;32;32677;-68
2022/06/26 04:47:52;;;;;;;4.97;2.70;;;;;;;19.10;95.48;100271.37;5531276;32;34329;-68
2022/06/26 04:50:56;;;;;;;5.22;2.78;;;;;;;18.83;93.82;100275.44;5531581;32;34559;-68
2022/06/26 04:54:00;;;;;;;3.05;2.60;;;;;;;18.81;93.27;100283.72;5531222;32;34627;-68
2022/06/26 04:57:07;;;;;;;3.42;2.55;;;;;;;18.93;92.36;100291.84;5531127;32;33880;-67
2022/06/26 05:00:14;;;;;;;4.95;2.80;;;;;;;18.88;92.48;100289.81;5531038;32;34054;-68
2022/06/26 05:03:17;;;;;;;4.60;2.42;;;;;;;18.87;93.31;100282.84;5531401;32;34032;-68
2022/06/26 05:06:22;;;;;;;2.45;2.20;;;;;;;18.93;92.33;100284.59;5531052;32;34733;-68
2022/06/26 05:09:27;;;;;;;4.68;2.35;;;;;;;19.12;91.53;100282.75;5531408;32;33153;-68
2022/06/26 05:12:32;;;;;;;4.40;2.35;;;;;;;19.28;91.37;100286.66;5530031;32;33989;-69
2022/06/26 05:15:41;;;;;;;2.85;2.12;;;;;;;19.40;91.05;100290.25;5530777;32;34079;-68
2022/06/26 05:18:52;;;;;;;3.58;2.50;;;;;;;19.61;89.99;100291.63;5530928;32;35369;-68
2022/06/26 05:21:55;;;;;;;3.60;2.10;;;;;;;19.81;88.48;100281.41;5530848;32;34740;-68
2022/06/26 05:24:59;;;;;;;3.72;2.72;;;;;;;19.86;88.67;100276.97;5530755;32;33945;-69
2022/06/26 05:28:05;;;;;;;3.35;2.33;;;;;;;19.87;88.37;100285.88;5529806;32;34011;-68
2022/06/26 05:31:08;;;;;;;4.85;2.17;;;;;;;19.98;88.30;100282.38;5531085;32;33973;-68
2022/06/26 05:34:11;;;;;;;3.20;2.10;;;;;;;20.02;89.48;100286.25;5530608;32;34010;-69
2022/06/26 05:37:14;;;;;;;3.85;2.00;;;;;;;20.24;87.58;100289.19;5530726;32;34910;-69
2022/06/26 05:40:17;;;;;;;4.10;2.35;;;;;;;20.31;86.91;100295.34;5530821;32;34589;-68
2022/06/26 05:43:22;;;;;;;2.85;2.00;;;;;;;20.54;86.33;100289.94;5530830;32;34475;-68
2022/06/26 05:46:26;;;;;;;4.18;1.92;;;;;;;20.71;85.20;100298.97;5530514;32;34290;-68
2022/06/26 05:49:31;;;;;;;4.00;2.12;;;;;;;20.63;85.17;100288.53;5530288;32;34003;-68
2022/06/26 05:52:35;;;;;;;2.37;1.65;;;;;;;20.83;84.11;100293.56;5530677;32;34472;-68
2022/06/26 05:55:39;;;;;;;3.05;2.05;;;;;;;20.88;84.34;100300.94;5530366;32;34241;-68
2022/06/26 05:58:45;;;;;;;4.93;2.00;;;;;;;21.06;84.71;100289.97;5530290;32;34505;-68
2022/06/26 06:01:49;;;;;;;2.10;1.70;;;;;;;21.01;84.52;100298.78;5530184;32;34619;-68
2022/06/26 06:04:52;;;;;;;2.70;1.85;;;;;;;21.06;84.21;100296.19;5529984;32;34652;-68
2022/06/26 06:07:55;;;;;;;2.25;1.75;;;;;;;21.29;83.75;100302.63;5530037;32;34222;-68
2022/06/26 06:10:59;;;;;;;1.58;1.48;;;;;;;21.41;83.08;100306.09;5530242;32;34589;-68
2022/06/26 06:14:05;;;;;;;3.50;1.60;;;;;;;21.58;82.09;100310.50;5529193;32;34061;-68
2022/06/26 06:20:33;;;;;;;2.55;1.58;;;;;;;21.88;79.50;100312.94;5529826;32;34495;-68
2022/06/26 06:23:39;;;;;;;1.95;1.50;;;;;;;21.93;79.28;100321.16;5529548;32;33960;-69
2022/06/26 06:26:45;;;;;;;1.75;1.37;;;;;;;22.20;77.78;100318.66;5529789;32;33999;-68
2022/06/26 06:29:48;;;;;;;2.17;1.40;;;;;;;22.22;77.29;100318.41;5530121;32;33949;-68
2022/06/26 06:32:51;;;;;;;1.40;1.30;;;;;;;22.39;76.43;100316.50;5530024;32;33953;-68
2022/06/26 06:36:01;;;;;;;2.33;1.80;;;;;;;22.50;78.20;100318.31;5529918;32;34367;-69
2022/06/26 06:39:04;;;;;;;1.48;1.27;;;;;;;22.33;76.90;100317.50;5531920;32;34220;-68
2022/06/26 06:42:10;;;;;;;1.85;1.40;;;;;;;22.48;76.33;100323.97;5530901;32;33199;-69
2022/06/26 06:45:14;;;;;;;2.85;1.58;;;;;;;22.56;77.13;100328.13;5532135;32;35160;-68
2022/06/26 06:48:26;;;;;;;3.47;1.25;;;;;;;22.89;76.36;100325.41;5532126;32;34022;-68
2022/06/26 06:51:40;;;;;;;1.37;1.25;;;;;;;23.00;74.56;100322.81;5530979;32;32586;-69
2022/06/26 06:54:43;;;;;;;1.73;1.30;;;;;;;23.23;73.61;100323.44;5532368;32;34663;-68
2022/06/26 06:57:46;;;;;;;1.67;1.30;;;;;;;23.50;73.49;100323.50;5532164;32;34055;-69
2022/06/26 07:00:50;;;;;;;1.40;1.30;;;;;;;23.66;72.41;100322.59;5531802;32;33971;-68
2022/06/26 07:03:53;;;;;;;2.08;1.40;;;;;;;23.80;72.27;100323.81;5531639;32;34702;-68
2022/06/26 07:06:56;;;;;;;1.50;1.12;;;;;;;23.78;71.31;100317.81;5531183;32;33966;-67
2022/06/26 07:09:59;;;;;;;6.45;1.40;;;;;;;23.95;69.97;100323.16;5531174;32;34171;-68
2022/06/26 07:13:02;;;;;;;1.20;1.10;;;;;;;24.13;70.58;100322.75;5518576;32;34405;-69
2022/06/26 07:16:05;;;;;;;1.20;1.08;;;;;;;24.39;68.82;100312.97;5531718;32;34679;-68
2022/06/26 07:19:08;;;;;;;1.25;1.00;;;;;;;24.72;66.97;100319.16;5531787;32;34029;-68
2022/06/26 07:22:10;;;;;;;1.83;1.23;;;;;;;24.60;64.67;100314.75;5531532;32;34291;-68
2022/06/26 07:25:13;;;;;;;1.58;1.30;;;;;;;24.87;65.46;100319.28;5531713;32;34750;-68
2022/06/26 07:28:18;;;;;;;1.17;1.08;;;;;;;25.05;64.29;100327.78;5530627;32;34837;-68
2022/06/26 07:31:21;;;;;;;1.85;1.40;;;;;;;25.20;63.57;100323.50;5531848;32;34711;-68
2022/06/26 07:34:25;;;;;;;2.90;1.10;;;;;;;25.71;62.35;100329.94;5531679;32;33991;-68
2022/06/26 07:37:28;;;;;;;5.43;1.08;;;;;;;25.78;59.68;100320.47;5531782;32;35183;-68
2022/06/26 07:40:32;;;;;;;1.12;0.90;;;;;;;26.24;57.08;100325.94;5531604;32;34837;-68
2022/06/26 07:43:36;;;;;;;1.08;0.85;;;;;;;26.90;54.90;100334.06;5531465;32;34665;-68
2022/06/26 07:46:39;;;;;;;2.17;1.37;;;;;;;27.43;53.89;100325.16;5531816;32;34632;-68
2022/06/26 07:49:42;;;;;;;1.35;0.70;;;;;;;28.00;52.42;100324.56;5531228;32;34554;-68
2022/06/26 07:52:45;;;;;;;1.00;0.90;;;;;;;28.46;51.84;100319.56;5531111;32;35257;-68
2022/06/26 07:55:48;;;;;;;1.27;0.70;;;;;;;29.82;47.35;100324.53;5531189;32;33913;-69
2022/06/26 07:58:55;;;;;;;1.08;0.80;;;;;;;30.68;45.12;100325.88;5531151;32;34666;-68
2022/06/26 08:01:58;;;;;;;1.83;0.80;;;;;;;31.11;44.12;100333.84;5531824;32;34641;-69
2022/06/26 08:05:04;;;;;;;0.98;0.85;;;;;;;29.88;45.35;100328.78;5531194;32;34055;-68
2022/06/26 08:08:07;;;;;;;1.48;1.05;;;;;;;30.87;43.04;100321.13;5531518;32;34001;-68
2022/06/26 08:11:10;;;;;;;1.23;0.90;;;;;;;30.86;44.98;100324.16;5531189;32;34175;-68
2022/06/26 08:14:12;;;;;;;1.62;0.77;;;;;;;31.47;42.15;100324.53;5530780;32;34014;-69
2022/06/26 08:17:15;;;;;;;0.80;0.80;;;;;;;32.46;39.82;100320.03;5531423;32;34045;-69
2022/06/26 08:20:19;;;;;;;1.10;0.70;;;;;;;32.07;41.00;100321.53;5531307;32;34101;-69
2022/06/26 08:23:21;;;;;;;1.12;0.85;;;;;;;32.91;38.15;100318.84;5531259;32;34574;-69
2022/06/26 08:26:24;;;;;;;0.90;0.70;;;;;;;33.25;38.46;100317.34;5531023;32;34586;-69
2022/06/26 08:29:28;;;;;;;1.27;0.80;;;;;;;33.87;36.82;100324.25;5531253;32;33935;-68
2022/06/26 08:32:31;;;;;;;2.70;0.70;;;;;;;33.98;37.17;100325.56;5531249;32;33976;-67
2022/06/26 08:35:36;;;;;;;1.75;0.73;;;;;;;33.42;37.18;100323.69;5531226;32;34803;-68
2022/06/26 08:38:39;;;;;;;1.08;0.73;;;;;;;33.08;37.66;100318.09;5531086;32;34144;-68
2022/06/26 08:41:52;;;;;;;1.45;0.80;;;;;;;33.74;35.67;100324.41;5530769;32;34827;-68
2022/06/26 08:44:58;;;;;;;0.82;0.62;;;;;;;34.39;33.94;100327.78;5531314;32;34324;-70
2022/06/26 08:48:02;;;;;;;1.73;0.82;;;;;;;33.99;34.17;100315.31;5530080;32;33970;-69
2022/06/26 08:51:05;;;;;;;1.02;0.60;;;;;;;34.91;33.72;100319.34;5530658;32;34413;-68
2022/06/26 08:54:09;;;;;;;2.25;0.82;;;;;;;34.93;34.31;100319.03;5529511;32;32621;-70
2022/06/26 08:57:13;;;;;;;1.40;0.80;;;;;;;33.86;34.48;100313.56;5530739;32;34712;-69
2022/06/26 09:00:17;;;;;;;0.65;0.60;;;;;;;34.48;33.66;100322.22;5516791;32;32756;-69
2022/06/26 09:03:19;;;;;;;1.40;0.68;;;;;;;35.97;32.40;100323.53;5530648;32;33837;-69
2022/06/26 09:06:22;;;;;;;1.25;0.60;;;;;;;35.89;31.53;100323.62;5530614;32;34725;-69
2022/06/26 09:09:28;;;;;;;1.50;0.60;;;;;;;36.20;30.46;100317.69;5529754;32;33968;-69
2022/06/26 09:12:36;;;;;;;1.50;0.60;;;;;;;36.84;28.03;100313.22;5530544;32;34235;-69
2022/06/26 09:15:40;;;;;;;1.40;0.70;;;;;;;37.28;28.77;100316.22;5530711;32;34155;-69
2022/06/26 09:18:43;;;;;;;1.58;0.60;;;;;;;37.12;29.71;100318.09;5529846;32;34718;-69
2022/06/26 09:22:11;;;;;;;0.60;0.50;;;;;;;37.49;28.23;100316.88;5529857;32;35148;-70
2022/06/26 09:25:13;;;;;;;1.05;0.60;;;;;;;37.40;26.62;100314.25;5530513;32;34193;-69
2022/06/26 09:28:35;;;;;;;1.00;0.60;;;;;;;35.62;29.92;100305.66;5530329;32;35190;-69
2022/06/26 09:31:39;;;;;;;0.70;0.52;;;;;;;36.99;26.01;100312.53;5530673;32;34098;-69
2022/06/26 09:34:49;;;;;;;1.23;0.55;;;;;;;35.71;27.92;100307.22;5530421;32;35234;-69
2022/06/26 09:37:52;;;;;;;0.93;0.70;;;;;;;36.02;24.86;100301.25;5530412;32;34267;-69
2022/06/26 09:41:03;;;;;;;0.82;0.70;;;;;;;37.86;23.93;100298.22;5530461;32;34058;-68
2022/06/26 09:44:19;;;;;;;1.95;0.68;;;;;;;39.18;22.63;100303.31;5530043;32;34994;-69
2022/06/26 09:47:24;;;;;;;0.98;0.50;;;;;;;39.56;23.42;100305.37;5530648;32;33977;-70
2022/06/26 09:50:28;;;;;;;1.20;0.65;;;;;;;40.45;22.02;100296.03;5530363;32;34005;-69
2022/06/26 09:53:31;;;;;;;2.62;0.60;;;;;;;40.16;22.15;100298.28;5530419;32;34619;-69
2022/06/26 09:56:34;;;;;;;1.87;0.88;;;;;;;39.53;21.49;100293.03;5530373;32;34611;-69
2022/06/26 09:59:39;;;;;;;0.70;0.60;;;;;;;39.74;21.09;100305.75;5530170;32;33931;-69
2022/06/26 10:06:25;;;;;;;1.40;0.50;;;;;;;38.23;21.24;100294.16;5530364;32;33890;-69
2022/06/26 10:09:29;;;;;;;1.35;0.50;;;;;;;39.58;20.77;100310.56;5530124;32;34315;-69
2022/06/26 10:12:37;;;;;;;1.67;0.60;;;;;;;40.04;20.84;100303.22;5529834;32;34025;-69
2022/06/26 10:15:59;;;;;;;0.80;0.50;;;;;;;40.21;19.87;100300.78;5532732;32;34183;-69
2022/06/26 10:19:26;;;;;;;4.37;0.50;;;;;;;40.12;20.52;100297.41;5532481;32;34010;-69
2022/06/26 10:22:43;;;;;;;2.42;0.68;;;;;;;41.26;19.91;100296.59;5532597;32;34402;-70
2022/06/26 10:25:46;;;;;;;1.05;0.70;;;;;;;41.19;20.85;100286.97;5532473;32;34668;-69
2022/06/26 10:28:57;;;;;;;3.22;0.60;;;;;;;39.83;20.93;100287.72;5532224;32;33914;-69
2022/06/26 10:32:00;;;;;;;1.27;0.73;;;;;;;39.20;21.43;100283.53;5532108;32;33891;-68
2022/06/26 10:35:06;;;;;;;0.90;0.50;;;;;;;40.85;20.36;100288.03;5532017;32;33977;-68
2022/06/26 10:38:24;;;;;;;0.70;0.50;;;;;;;41.08;19.33;100282.44;5532158;32;35120;-69
2022/06/26 10:45:28;;;;;;;2.65;0.80;;;;;;;41.06;19.31;100285.56;5531140;32;32516;-69
2022/06/26 10:48:31;;;;;;;2.25;0.73;;;;;;;42.77;18.16;100280.84;5532590;32;34537;-68
2022/06/26 10:51:39;;;;;;;0.70;0.52;;;;;;;42.63;17.28;100272.34;5530922;32;33931;-69
2022/06/26 10:54:42;;;;;;;0.80;0.62;;;;;;;42.27;18.30;100279.56;5532118;32;35163;-69
2022/06/26 10:57:45;;;;;;;1.27;0.52;;;;;;;43.11;18.21;100278.72;5532166;32;34434;-69
2022/06/26 11:00:48;;;;;;;1.65;0.88;;;;;;;42.58;18.12;100278.28;5532047;32;34605;-69
2022/06/26 11:03:51;;;;;;;0.88;0.57;;;;;;;43.69;17.64;100275.03;5531881;32;34625;-71
2022/06/26 11:06:55;;;;;;;0.70;0.55;;;;;;;41.74;18.64;100269.78;5531052;32;32718;-69
2022/06/26 11:09:59;;;;;;;1.02;0.70;;;;;;;40.83;19.12;100262.53;5532404;32;33984;-69
2022/06/26 11:13:02;;;;;;;1.15;0.75;;;;;;;41.18;18.97;100267.87;5531191;32;32988;-68
2022/06/26 11:16:06;;;;;;;2.97;0.77;;;;;;;40.53;19.57;100278.31;5531963;32;33947;-69
2022/06/26 11:19:27;;;;;;;2.33;0.88;;;;;;;43.00;17.62;100266.63;5531908;32;35418;-68
2022/06/26 11:22:30;;;;;;;1.23;0.80;;;;;;;42.14;17.75;100264.28;5531196;32;33750;-69
2022/06/26 11:25:33;;;;;;;0.98;0.77;;;;;;;42.91;16.64;100267.00;5530128;32;34640;-68
2022/06/26 11:28:41;;;;;;;3.25;0.90;;;;;;;43.68;17.27;100265.84;5531620;32;33994;-69
2022/06/26 11:31:48;;;;;;;0.90;0.70;;;;;;;42.89;16.79;100263.81;5531163;32;33350;-68
2022/06/26 11:34:55;;;;;;;1.73;0.80;;;;;;;42.33;17.82;100254.94;5531045;32;33936;-68
2022/06/26 11:37:59;;;;;;;2.50;0.90;;;;;;;42.25;17.75;100256.03;5531795;32;34636;-69
2022/06/26 11:41:04;;;;;;;1.48;0.80;;;;;;;42.05;18.04;100249.88;5531064;32;33957;-69
2022/06/26 11:44:23;;;;;;;1.98;0.80;;;;;;;40.75;19.08;100244.13;5531826;32;34616;-69
2022/06/26 11:47:28;;;;;;;1.80;0.70;;;;;;;39.32;20.64;100245.38;5531679;32;33952;-69
2022/06/26 11:50:37;;;;;;;4.62;0.88;;;;;;;41.95;18.43;100234.66;5531556;32;34852;-69
2022/06/26 11:53:44;;;;;;;1.05;0.50;;;;;;;39.54;20.00;100244.66;5530522;32;33815;-68
2022/06/26 11:56:46;;;;;;;1.67;0.82;;;;;;;37.71;22.05;100229.78;5531643;32;33916;-68
2022/06/26 11:59:49;;;;;;;2.50;0.90;;;;;;;36.52;23.70;100233.94;5531605;32;34584;-69
2022/06/26 12:02:52;;;;;;;1.37;1.00;;;;;;;35.21;23.77;100232.75;5531575;32;34687;-68
2022/06/26 12:05:55;;;;;;;2.03;1.00;;;;;;;35.85;23.68;100226.87;5531793;32;33926;-69
2022/06/26 12:09:15;;;;;;;1.30;0.90;;;;;;;36.93;22.69;100217.16;5531801;32;33893;-68
2022/06/26 12:12:18;;;;;;;1.55;0.85;;;;;;;39.79;18.91;100231.31;5530694;32;34061;-69
2022/06/26 12:15:21;;;;;;;0.68;0.68;;;;;;;42.50;17.48;100229.19;5531530;32;34646;-69
2022/06/26 12:18:26;;;;;;;2.15;1.10;;;;;;;44.63;14.97;100230.06;5531811;32;34702;-69
2022/06/26 12:21:29;;;;;;;1.30;0.80;;;;;;;41.81;17.82;100220.53;5531631;32;34870;-69
2022/06/26 12:24:31;;;;;;;2.12;0.80;;;;;;;42.41;16.82;100220.37;5531729;32;33902;-69
2022/06/26 12:27:39;;;;;;;5.62;1.00;;;;;;;40.03;19.09;100218.25;5530733;32;34155;-68
2022/06/26 12:30:44;;;;;;;1.50;0.88;;;;;;;40.37;18.98;100218.09;5531691;32;34036;-68
2022/06/26 12:33:48;;;;;;;1.58;1.20;;;;;;;42.11;16.99;100216.87;5531396;32;34028;-68
2022/06/26 12:36:51;;;;;;;1.92;0.93;;;;;;;39.97;19.64;100226.87;5531346;32;33981;-69
2022/06/26 12:39:53;;;;;;;1.42;1.17;;;;;;;38.02;21.40;100218.78;5531544;32;34818;-69
2022/06/26 12:42:56;;;;;;;1.33;0.80;;;;;;;36.84;22.53;100212.91;5531214;32;34545;-69
2022/06/26 12:45:59;;;;;;;3.15;1.33;;;;;;;35.27;24.77;100223.13;5531163;32;34040;-70
2022/06/26 12:49:02;;;;;;;1.95;0.95;;;;;;;34.75;26.83;100214.38;5531002;32;34354;-69
2022/06/26 12:52:06;;;;;;;2.10;1.23;;;;;;;33.68;27.00;100215.66;5531103;32;34345;-68
2022/06/26 12:55:10;;;;;;;3.55;1.35;;;;;;;32.81;28.36;100213.91;5531185;32;34049;-68
2022/06/26 12:58:13;;;;;;;2.15;0.90;;;;;;;32.51;28.02;100208.12;5531255;32;34042;-69
2022/06/26 13:01:15;;;;;;;3.40;1.02;;;;;;;32.05;29.43;100210.47;5531012;32;34625;-69
2022/06/26 13:04:18;;;;;;;2.03;1.35;;;;;;;31.82;31.82;100209.66;5530963;32;33999;-69
2022/06/26 13:07:21;;;;;;;2.25;1.02;;;;;;;31.62;32.89;100210.16;5531232;32;33997;-68
2022/06/26 13:10:34;;;;;;;6.18;1.00;;;;;;;31.42;31.91;100212.25;5531110;32;34560;-68
2022/06/26 13:13:37;;;;;;;3.45;1.10;;;;;;;31.03;33.20;100220.28;5531222;32;33908;-68
2022/06/26 13:17:00;;;;;;;2.00;1.00;;;;;;;30.83;33.97;100215.19;5530740;32;33967;-67
2022/06/26 13:20:03;;;;;;;3.70;1.20;;;;;;;30.67;33.97;100214.69;5530349;32;33127;-68
2022/06/26 13:23:06;;;;;;;3.62;1.17;;;;;;;30.43;34.42;100214.88;5530796;32;34282;-69
2022/06/26 13:26:09;;;;;;;1.60;1.37;;;;;;;30.46;35.12;100217.03;5529776;32;32515;-69
2022/06/26 13:29:11;;;;;;;3.45;1.20;;;;;;;30.36;35.89;100216.37;5529875;32;32662;-68
2022/06/26 13:32:14;;;;;;;1.40;1.00;;;;;;;30.28;37.41;100212.41;5531134;32;33948;-68
2022/06/26 13:35:16;;;;;;;1.65;1.10;;;;;;;30.25;36.56;100221.25;5530894;32;34694;-69
2022/06/26 13:38:19;;;;;;;1.00;0.82;;;;;;;30.03;38.06;100213.69;5530460;32;34668;-69
2022/06/26 13:41:22;;;;;;;1.45;1.10;;;;;;;30.07;37.41;100214.69;5530289;32;34578;-68
2022/06/26 13:44:25;;;;;;;1.80;1.40;;;;;;;30.02;39.85;100219.44;5530556;32;34144;-68
2022/06/26 13:47:27;;;;;;;3.17;1.70;;;;;;;30.17;37.22;100219.19;5529539;32;34574;-68
2022/06/26 13:50:31;;;;;;;2.83;1.70;;;;;;;30.48;37.31;100225.75;5530343;32;34116;-68
2022/06/26 13:53:33;;;;;;;1.62;1.10;;;;;;;32.55;33.77;100217.34;5529601;32;32798;-68
2022/06/26 13:56:39;;;;;;;2.53;1.00;;;;;;;35.08;28.43;100224.72;5530123;32;34055;-68
2022/06/26 13:59:41;;;;;;;1.60;1.00;;;;;;;34.57;29.05;100212.03;5530093;32;33895;-68
2022/06/26 14:02:44;;;;;;;3.53;1.30;;;;;;;37.05;25.42;100221.03;5530408;32;33812;-67
2022/06/26 14:05:47;;;;;;;2.45;1.33;;;;;;;41.95;21.37;100223.50;5530018;32;34015;-68
2022/06/26 14:08:53;;;;;;;2.03;1.10;;;;;;;43.16;16.69;100230.06;5530063;32;35190;-68
2022/06/26 14:11:57;;;;;;;2.40;1.20;;;;;;;46.24;15.14;100227.03;5529549;32;34668;-68
2022/06/26 14:14:59;;;;;;;1.65;0.80;;;;;;;47.79;13.78;100235.00;5529932;32;34638;-68
2022/06/26 14:18:02;;;;;;;1.73;0.90;;;;;;;48.37;13.45;100230.91;5529497;32;34308;-68
2022/06/26 14:21:07;;;;;;;2.22;1.00;;;;;;;47.28;13.32;100225.66;5529858;32;33993;-69
2022/06/26 14:27:31;;;;;;;3.28;1.00;;;;;;;44.28;16.38;100230.87;5529085;32;34024;-67
2022/06/26 14:30:34;;;;;;;1.35;0.88;;;;;;;42.52;17.13;100218.44;5515346;32;33704;-67
2022/06/26 14:33:37;;;;;;;3.10;1.42;;;;;;;41.72;18.48;100211.69;5528185;32;32580;-69
2022/06/26 14:36:40;;;;;;;2.65;1.10;;;;;;;42.26;17.71;100221.41;5529214;32;34668;-68